sensor_id;sensor_type;location;lat;lon;timestamp;P1;durP1;ratioP1;P2;durP2;ratioP2
22094;SDS011;24083;55.670;37.568;2023-12-20T00:05:00;4.22;;;1.65;;
22094;SDS011;24083;55.670;37.568;2023-12-20T00:11:19;1.73;;;1.60;;
22094;SDS011;24083;55.670;37.568;2023-12-20T00:17:39;1.50;;;1.38;;
22094;SDS011;24083;55.670;37.568;2023-12-20T00:23:58;2.50;;;2.00;;
22094;SDS011;24083;55.670;37.568;2023-12-20T01:08:05;4.07;;;2.35;;
22094;SDS011;24083;55.670;37.568;2023-12-20T01:13:03;4.50;;;2.83;;
22094;SDS011;24083;55.670;37.568;2023-12-20T01:15:38;2.78;;;1.77;;
22094;SDS011;24083;55.670;37.568;2023-12-20T01:21:50;2.40;;;1.98;;
22094;SDS011;24083;55.670;37.568;2023-12-20T01:24:24;1.70;;;1.50;;
22094;SDS011;24083;55.670;37.568;2023-12-20T01:26:50;2.08;;;1.75;;
22094;SDS011;24083;55.670;37.568;2023-12-20T01:29:17;2.00;;;1.33;;
22094;SDS011;24083;55.670;37.568;2023-12-20T01:31:48;4.50;;;1.73;;
22094;SDS011;24083;55.670;37.568;2023-12-20T01:34:13;3.85;;;2.28;;
22094;SDS011;24083;55.670;37.568;2023-12-20T01:36:39;2.50;;;1.60;;
22094;SDS011;24083;55.670;37.568;2023-12-20T01:39:07;1.83;;;1.38;;
22094;SDS011;24083;55.670;37.568;2023-12-20T01:41:34;1.80;;;1.65;;
22094;SDS011;24083;55.670;37.568;2023-12-20T01:44:02;3.22;;;1.90;;
22094;SDS011;24083;55.670;37.568;2023-12-20T01:46:29;1.85;;;1.45;;
22094;SDS011;24083;55.670;37.568;2023-12-20T01:48:59;2.38;;;1.60;;
22094;SDS011;24083;55.670;37.568;2023-12-20T01:51:36;3.53;;;1.83;;
22094;SDS011;24083;55.670;37.568;2023-12-20T01:56:57;2.67;;;1.45;;
22094;SDS011;24083;55.670;37.568;2023-12-20T01:59:23;3.25;;;1.30;;
22094;SDS011;24083;55.670;37.568;2023-12-20T02:01:50;2.97;;;1.15;;
22094;SDS011;24083;55.670;37.568;2023-12-20T02:04:16;1.58;;;1.10;;
22094;SDS011;24083;55.670;37.568;2023-12-20T02:06:44;3.08;;;1.30;;
22094;SDS011;24083;55.670;37.568;2023-12-20T02:09:12;2.47;;;1.30;;
22094;SDS011;24083;55.670;37.568;2023-12-20T02:11:44;2.80;;;1.50;;
22094;SDS011;24083;55.670;37.568;2023-12-20T02:14:11;1.42;;;1.00;;
22094;SDS011;24083;55.670;37.568;2023-12-20T02:16:37;0.50;;;0.40;;
22094;SDS011;24083;55.670;37.568;2023-12-20T02:19:05;2.33;;;1.10;;
22094;SDS011;24083;55.670;37.568;2023-12-20T02:24:29;1.83;;;0.77;;
22094;SDS011;24083;55.670;37.568;2023-12-20T02:33:42;1.52;;;0.80;;
22094;SDS011;24083;55.670;37.568;2023-12-20T02:52:25;1.90;;;1.20;;
22094;SDS011;24083;55.670;37.568;2023-12-20T02:54:51;1.42;;;1.20;;
22094;SDS011;24083;55.670;37.568;2023-12-20T02:57:19;3.42;;;2.08;;
22094;SDS011;24083;55.670;37.568;2023-12-20T02:59:45;3.25;;;2.08;;
22094;SDS011;24083;55.670;37.568;2023-12-20T03:02:11;3.40;;;1.92;;
22094;SDS011;24083;55.670;37.568;2023-12-20T03:04:38;1.13;;;0.98;;
22094;SDS011;24083;55.670;37.568;2023-12-20T03:07:06;3.53;;;2.50;;
22094;SDS011;24083;55.670;37.568;2023-12-20T03:12:25;1.95;;;1.27;;
22094;SDS011;24083;55.670;37.568;2023-12-20T03:14:51;2.55;;;1.85;;
22094;SDS011;24083;55.670;37.568;2023-12-20T03:17:23;4.47;;;2.08;;
22094;SDS011;24083;55.670;37.568;2023-12-20T03:19:55;3.05;;;2.03;;
22094;SDS011;24083;55.670;37.568;2023-12-20T03:22:22;4.70;;;1.77;;
22094;SDS011;24083;55.670;37.568;2023-12-20T03:24:59;3.53;;;2.53;;
22094;SDS011;24083;55.670;37.568;2023-12-20T03:30:16;2.50;;;2.10;;
22094;SDS011;24083;55.670;37.568;2023-12-20T03:36:08;2.95;;;2.08;;
22094;SDS011;24083;55.670;37.568;2023-12-20T03:38:34;1.67;;;1.42;;
22094;SDS011;24083;55.670;37.568;2023-12-20T03:41:06;4.05;;;2.47;;
22094;SDS011;24083;55.670;37.568;2023-12-20T03:49:47;3.42;;;2.67;;
22094;SDS011;24083;55.670;37.568;2023-12-20T03:52:34;5.90;;;3.42;;
22094;SDS011;24083;55.670;37.568;2023-12-20T03:58:03;3.15;;;1.67;;
22094;SDS011;24083;55.670;37.568;2023-12-20T04:03:05;5.72;;;2.97;;
22094;SDS011;24083;55.670;37.568;2023-12-20T04:05:31;5.70;;;3.05;;
22094;SDS011;24083;55.670;37.568;2023-12-20T04:07:59;7.00;;;3.47;;
22094;SDS011;24083;55.670;37.568;2023-12-20T04:12:56;5.85;;;3.78;;
22094;SDS011;24083;55.670;37.568;2023-12-20T04:15:21;7.32;;;3.65;;
22094;SDS011;24083;55.670;37.568;2023-12-20T04:20:39;6.25;;;2.95;;
22094;SDS011;24083;55.670;37.568;2023-12-20T04:23:08;3.92;;;2.97;;
22094;SDS011;24083;55.670;37.568;2023-12-20T04:25:39;2.70;;;2.08;;
22094;SDS011;24083;55.670;37.568;2023-12-20T04:39:19;9.18;;;4.25;;
22094;SDS011;24083;55.670;37.568;2023-12-20T04:41:49;2.33;;;1.75;;
22094;SDS011;24083;55.670;37.568;2023-12-20T04:47:20;4.78;;;3.40;;
22094;SDS011;24083;55.670;37.568;2023-12-20T04:50:04;4.38;;;3.13;;
22094;SDS011;24083;55.670;37.568;2023-12-20T05:07:06;4.90;;;1.42;;
22094;SDS011;24083;55.670;37.568;2023-12-20T05:09:50;3.05;;;1.70;;
22094;SDS011;24083;55.670;37.568;2023-12-20T05:12:16;3.15;;;2.00;;
22094;SDS011;24083;55.670;37.568;2023-12-20T05:14:53;3.35;;;1.98;;
22094;SDS011;24083;55.670;37.568;2023-12-20T05:27:02;5.15;;;2.42;;
22094;SDS011;24083;55.670;37.568;2023-12-20T05:32:22;4.05;;;2.33;;
22094;SDS011;24083;55.670;37.568;2023-12-20T05:34:48;2.47;;;1.70;;
22094;SDS011;24083;55.670;37.568;2023-12-20T05:50:02;5.60;;;3.00;;
22094;SDS011;24083;55.670;37.568;2023-12-20T05:52:30;5.10;;;2.55;;
22094;SDS011;24083;55.670;37.568;2023-12-20T05:54:57;4.35;;;2.65;;
22094;SDS011;24083;55.670;37.568;2023-12-20T05:57:27;6.43;;;3.40;;
22094;SDS011;24083;55.670;37.568;2023-12-20T06:05:44;6.00;;;2.80;;
22094;SDS011;24083;55.670;37.568;2023-12-20T06:08:27;2.95;;;2.42;;
22094;SDS011;24083;55.670;37.568;2023-12-20T06:10:53;4.55;;;3.03;;
22094;SDS011;24083;55.670;37.568;2023-12-20T06:13:25;3.55;;;2.63;;
22094;SDS011;24083;55.670;37.568;2023-12-20T06:15:55;5.47;;;2.42;;
22094;SDS011;24083;55.670;37.568;2023-12-20T06:18:38;5.22;;;2.70;;
22094;SDS011;24083;55.670;37.568;2023-12-20T06:21:06;3.72;;;2.85;;
22094;SDS011;24083;55.670;37.568;2023-12-20T06:23:39;5.35;;;2.97;;
22094;SDS011;24083;55.670;37.568;2023-12-20T06:32:10;6.97;;;2.65;;
22094;SDS011;24083;55.670;37.568;2023-12-20T06:34:40;3.53;;;2.33;;
22094;SDS011;24083;55.670;37.568;2023-12-20T06:37:06;4.13;;;2.55;;
22094;SDS011;24083;55.670;37.568;2023-12-20T06:39:34;3.85;;;2.33;;
22094;SDS011;24083;55.670;37.568;2023-12-20T06:44:52;3.35;;;1.83;;
22094;SDS011;24083;55.670;37.568;2023-12-20T06:47:19;1.58;;;1.05;;
22094;SDS011;24083;55.670;37.568;2023-12-20T06:49:46;5.90;;;2.83;;
22094;SDS011;24083;55.670;37.568;2023-12-20T06:52:27;7.28;;;2.78;;
22094;SDS011;24083;55.670;37.568;2023-12-20T06:54:54;2.75;;;1.83;;
22094;SDS011;24083;55.670;37.568;2023-12-20T07:03:38;4.10;;;2.22;;
22094;SDS011;24083;55.670;37.568;2023-12-20T07:06:21;4.80;;;2.53;;
22094;SDS011;24083;55.670;37.568;2023-12-20T07:08:47;5.88;;;2.80;;
22094;SDS011;24083;55.670;37.568;2023-12-20T07:11:16;2.03;;;1.50;;
22094;SDS011;24083;55.670;37.568;2023-12-20T07:16:41;3.40;;;2.08;;
22094;SDS011;24083;55.670;37.568;2023-12-20T07:28:47;2.13;;;1.20;;
22094;SDS011;24083;55.670;37.568;2023-12-20T07:36:57;1.38;;;0.88;;
22094;SDS011;24083;55.670;37.568;2023-12-20T07:45:35;2.88;;;1.73;;
22094;SDS011;24083;55.670;37.568;2023-12-20T07:48:17;1.52;;;1.10;;
22094;SDS011;24083;55.670;37.568;2023-12-20T07:50:49;3.53;;;2.00;;
22094;SDS011;24083;55.670;37.568;2023-12-20T07:53:21;3.83;;;1.70;;
22094;SDS011;24083;55.670;37.568;2023-12-20T07:55:48;3.30;;;1.40;;
22094;SDS011;24083;55.670;37.568;2023-12-20T07:58:16;3.95;;;1.75;;
22094;SDS011;24083;55.670;37.568;2023-12-20T08:09:17;2.15;;;1.42;;
22094;SDS011;24083;55.670;37.568;2023-12-20T08:11:47;3.30;;;2.13;;
22094;SDS011;24083;55.670;37.568;2023-12-20T08:14:30;3.17;;;1.75;;
22094;SDS011;24083;55.670;37.568;2023-12-20T08:17:11;4.93;;;1.63;;
22094;SDS011;24083;55.670;37.568;2023-12-20T08:22:31;3.75;;;2.20;;
22094;SDS011;24083;55.670;37.568;2023-12-20T08:25:06;2.50;;;1.52;;
22094;SDS011;24083;55.670;37.568;2023-12-20T08:27:32;4.53;;;2.33;;
22094;SDS011;24083;55.670;37.568;2023-12-20T08:29:58;4.65;;;2.20;;
22094;SDS011;24083;55.670;37.568;2023-12-20T08:43:43;3.60;;;2.22;;
22094;SDS011;24083;55.670;37.568;2023-12-20T08:46:09;3.90;;;2.10;;
22094;SDS011;24083;55.670;37.568;2023-12-20T08:48:46;2.85;;;2.08;;
22094;SDS011;24083;55.670;37.568;2023-12-20T08:59:46;5.30;;;1.95;;
22094;SDS011;24083;55.670;37.568;2023-12-20T09:02:20;3.20;;;2.50;;
22094;SDS011;24083;55.670;37.568;2023-12-20T09:18:47;4.10;;;2.75;;
22094;SDS011;24083;55.670;37.568;2023-12-20T09:25:10;2.30;;;1.60;;
22094;SDS011;24083;55.670;37.568;2023-12-20T09:27:39;3.50;;;1.90;;
22094;SDS011;24083;55.670;37.568;2023-12-20T09:30:06;6.20;;;2.95;;
22094;SDS011;24083;55.670;37.568;2023-12-20T09:36:25;2.63;;;1.33;;
22094;SDS011;24083;55.670;37.568;2023-12-20T09:38:52;3.22;;;2.60;;
22094;SDS011;24083;55.670;37.568;2023-12-20T09:44:31;2.47;;;1.92;;
22094;SDS011;24083;55.670;37.568;2023-12-20T09:49:52;3.38;;;2.03;;
22094;SDS011;24083;55.670;37.568;2023-12-20T09:52:23;3.33;;;2.65;;
22094;SDS011;24083;55.670;37.568;2023-12-20T10:02:10;1.98;;;1.70;;
22094;SDS011;24083;55.670;37.568;2023-12-20T10:04:53;3.03;;;2.30;;
22094;SDS011;24083;55.670;37.568;2023-12-20T10:11:06;2.60;;;2.10;;
22094;SDS011;24083;55.670;37.568;2023-12-20T10:13:32;1.80;;;1.48;;
22094;SDS011;24083;55.670;37.568;2023-12-20T10:19:03;1.77;;;1.30;;
22094;SDS011;24083;55.670;37.568;2023-12-20T10:21:30;1.35;;;0.98;;
22094;SDS011;24083;55.670;37.568;2023-12-20T10:23:57;2.58;;;1.48;;
22094;SDS011;24083;55.670;37.568;2023-12-20T10:26:24;1.83;;;1.17;;
22094;SDS011;24083;55.670;37.568;2023-12-20T10:39:41;2.22;;;1.55;;
22094;SDS011;24083;55.670;37.568;2023-12-20T11:11:26;1.35;;;1.13;;
22094;SDS011;24083;55.670;37.568;2023-12-20T11:16:23;1.33;;;1.02;;
22094;SDS011;24083;55.670;37.568;2023-12-20T11:27:22;2.17;;;1.17;;
22094;SDS011;24083;55.670;37.568;2023-12-20T11:29:51;2.50;;;1.70;;
22094;SDS011;24083;55.670;37.568;2023-12-20T11:37:45;3.47;;;1.60;;
22094;SDS011;24083;55.670;37.568;2023-12-20T11:40:15;1.60;;;1.27;;
22094;SDS011;24083;55.670;37.568;2023-12-20T11:42:45;3.25;;;1.52;;
22094;SDS011;24083;55.670;37.568;2023-12-20T11:45:14;4.07;;;1.15;;
22094;SDS011;24083;55.670;37.568;2023-12-20T11:47:42;4.03;;;2.13;;
22094;SDS011;24083;55.670;37.568;2023-12-20T11:50:11;3.50;;;2.28;;
22094;SDS011;24083;55.670;37.568;2023-12-20T11:52:39;3.38;;;1.80;;
22094;SDS011;24083;55.670;37.568;2023-12-20T12:00:55;1.17;;;0.93;;
22094;SDS011;24083;55.670;37.568;2023-12-20T12:06:20;2.40;;;1.67;;
22094;SDS011;24083;55.670;37.568;2023-12-20T12:08:46;4.05;;;1.77;;
22094;SDS011;24083;55.670;37.568;2023-12-20T12:14:06;2.28;;;1.65;;
22094;SDS011;24083;55.670;37.568;2023-12-20T12:16:33;2.17;;;1.90;;
22094;SDS011;24083;55.670;37.568;2023-12-20T12:22:47;3.47;;;1.98;;
22094;SDS011;24083;55.670;37.568;2023-12-20T12:25:47;2.78;;;1.83;;
22094;SDS011;24083;55.670;37.568;2023-12-20T12:28:15;3.25;;;1.48;;
22094;SDS011;24083;55.670;37.568;2023-12-20T12:45:42;2.35;;;1.75;;
22094;SDS011;24083;55.670;37.568;2023-12-20T12:51:13;3.45;;;2.20;;
22094;SDS011;24083;55.670;37.568;2023-12-20T12:53:39;1.98;;;1.40;;
22094;SDS011;24083;55.670;37.568;2023-12-20T12:56:06;2.53;;;1.55;;
22094;SDS011;24083;55.670;37.568;2023-12-20T13:05:43;2.75;;;1.88;;
22094;SDS011;24083;55.670;37.568;2023-12-20T13:08:14;3.72;;;1.85;;
22094;SDS011;24083;55.670;37.568;2023-12-20T13:10:40;5.25;;;1.48;;
22094;SDS011;24083;55.670;37.568;2023-12-20T13:19:33;1.67;;;1.08;;
22094;SDS011;24083;55.670;37.568;2023-12-20T13:21:58;2.08;;;1.50;;
22094;SDS011;24083;55.670;37.568;2023-12-20T13:24:37;3.75;;;1.20;;
22094;SDS011;24083;55.670;37.568;2023-12-20T13:27:04;3.25;;;1.27;;
22094;SDS011;24083;55.670;37.568;2023-12-20T13:29:32;4.15;;;1.95;;
22094;SDS011;24083;55.670;37.568;2023-12-20T13:32:02;3.33;;;1.30;;
22094;SDS011;24083;55.670;37.568;2023-12-20T13:34:32;2.38;;;1.45;;
22094;SDS011;24083;55.670;37.568;2023-12-20T13:39:57;1.33;;;1.00;;
22094;SDS011;24083;55.670;37.568;2023-12-20T13:42:36;2.60;;;1.60;;
22094;SDS011;24083;55.670;37.568;2023-12-20T13:50:20;1.38;;;0.98;;
22094;SDS011;24083;55.670;37.568;2023-12-20T13:52:40;2.88;;;1.30;;
22094;SDS011;24083;55.670;37.568;2023-12-20T13:55:05;2.25;;;1.65;;
22094;SDS011;24083;55.670;37.568;2023-12-20T13:57:37;1.80;;;1.17;;
22094;SDS011;24083;55.670;37.568;2023-12-20T14:00:05;3.35;;;2.03;;
22094;SDS011;24083;55.670;37.568;2023-12-20T14:02:32;3.40;;;1.70;;
22094;SDS011;24083;55.670;37.568;2023-12-20T14:04:58;2.40;;;1.90;;
22094;SDS011;24083;55.670;37.568;2023-12-20T14:07:24;2.55;;;2.00;;
22094;SDS011;24083;55.670;37.568;2023-12-20T14:09:50;2.60;;;1.92;;
22094;SDS011;24083;55.670;37.568;2023-12-20T14:12:17;2.08;;;1.30;;
22094;SDS011;24083;55.670;37.568;2023-12-20T14:14:55;4.93;;;1.70;;
22094;SDS011;24083;55.670;37.568;2023-12-20T14:20:13;2.85;;;1.83;;
22094;SDS011;24083;55.670;37.568;2023-12-20T14:22:39;1.85;;;1.10;;
22094;SDS011;24083;55.670;37.568;2023-12-20T14:28:12;2.47;;;1.75;;
22094;SDS011;24083;55.670;37.568;2023-12-20T14:30:42;2.40;;;1.80;;
22094;SDS011;24083;55.670;37.568;2023-12-20T14:33:12;5.13;;;1.90;;
22094;SDS011;24083;55.670;37.568;2023-12-20T14:35:38;3.70;;;1.20;;
22094;SDS011;24083;55.670;37.568;2023-12-20T14:38:03;2.13;;;1.48;;
22094;SDS011;24083;55.670;37.568;2023-12-20T14:40:37;4.47;;;1.60;;
22094;SDS011;24083;55.670;37.568;2023-12-20T14:43:19;2.13;;;1.83;;
22094;SDS011;24083;55.670;37.568;2023-12-20T14:46:12;6.63;;;2.13;;
22094;SDS011;24083;55.670;37.568;2023-12-20T14:48:37;2.50;;;1.05;;
22094;SDS011;24083;55.670;37.568;2023-12-20T14:51:21;3.03;;;2.00;;
22094;SDS011;24083;55.670;37.568;2023-12-20T14:53:47;4.00;;;2.08;;
22094;SDS011;24083;55.670;37.568;2023-12-20T14:56:12;2.35;;;1.75;;
22094;SDS011;24083;55.670;37.568;2023-12-20T14:58:41;2.03;;;1.70;;
22094;SDS011;24083;55.670;37.568;2023-12-20T15:01:07;3.55;;;1.88;;
22094;SDS011;24083;55.670;37.568;2023-12-20T15:03:58;1.90;;;1.10;;
22094;SDS011;24083;55.670;37.568;2023-12-20T15:06:26;1.67;;;1.38;;
22094;SDS011;24083;55.670;37.568;2023-12-20T15:08:53;6.47;;;2.30;;
22094;SDS011;24083;55.670;37.568;2023-12-20T15:14:09;3.50;;;2.05;;
22094;SDS011;24083;55.670;37.568;2023-12-20T15:16:41;2.53;;;1.88;;
22094;SDS011;24083;55.670;37.568;2023-12-20T15:19:08;1.80;;;1.25;;
22094;SDS011;24083;55.670;37.568;2023-12-20T15:31:05;2.10;;;1.77;;
22094;SDS011;24083;55.670;37.568;2023-12-20T15:40:24;2.15;;;1.02;;
22094;SDS011;24083;55.670;37.568;2023-12-20T15:45:41;1.58;;;1.20;;
22094;SDS011;24083;55.670;37.568;2023-12-20T15:48:07;5.40;;;1.42;;
22094;SDS011;24083;55.670;37.568;2023-12-20T16:10:31;5.65;;;2.60;;
22094;SDS011;24083;55.670;37.568;2023-12-20T16:15:52;3.83;;;2.38;;
22094;SDS011;24083;55.670;37.568;2023-12-20T16:18:18;2.20;;;1.63;;
22094;SDS011;24083;55.670;37.568;2023-12-20T16:20:44;3.70;;;1.50;;
22094;SDS011;24083;55.670;37.568;2023-12-20T16:23:10;2.03;;;1.58;;
22094;SDS011;24083;55.670;37.568;2023-12-20T16:25:38;2.17;;;1.70;;
22094;SDS011;24083;55.670;37.568;2023-12-20T16:45:36;2.60;;;1.85;;
22094;SDS011;24083;55.670;37.568;2023-12-20T16:48:03;1.48;;;1.10;;
22094;SDS011;24083;55.670;37.568;2023-12-20T16:50:40;2.70;;;1.63;;
22094;SDS011;24083;55.670;37.568;2023-12-20T16:53:09;4.60;;;2.00;;
22094;SDS011;24083;55.670;37.568;2023-12-20T16:55:36;4.03;;;2.10;;
22094;SDS011;24083;55.670;37.568;2023-12-20T16:58:02;2.65;;;1.20;;
22094;SDS011;24083;55.670;37.568;2023-12-20T17:00:37;1.88;;;1.50;;
22094;SDS011;24083;55.670;37.568;2023-12-20T17:03:04;2.85;;;1.63;;
22094;SDS011;24083;55.670;37.568;2023-12-20T17:05:32;3.15;;;1.60;;
22094;SDS011;24083;55.670;37.568;2023-12-20T17:07:58;3.80;;;1.60;;
22094;SDS011;24083;55.670;37.568;2023-12-20T17:10:24;3.03;;;1.50;;
22094;SDS011;24083;55.670;37.568;2023-12-20T17:12:59;1.77;;;1.40;;
22094;SDS011;24083;55.670;37.568;2023-12-20T17:15:36;2.85;;;1.52;;
22094;SDS011;24083;55.670;37.568;2023-12-20T17:23:33;1.95;;;1.25;;
22094;SDS011;24083;55.670;37.568;2023-12-20T17:26:02;2.55;;;1.55;;
22094;SDS011;24083;55.670;37.568;2023-12-20T17:28:31;4.78;;;1.58;;
22094;SDS011;24083;55.670;37.568;2023-12-20T17:31:02;2.67;;;1.35;;
22094;SDS011;24083;55.670;37.568;2023-12-20T17:33:35;0.70;;;0.60;;
22094;SDS011;24083;55.670;37.568;2023-12-20T17:36:00;1.63;;;1.35;;
22094;SDS011;24083;55.670;37.568;2023-12-20T17:38:31;2.10;;;1.30;;
22094;SDS011;24083;55.670;37.568;2023-12-20T17:41:02;4.15;;;1.70;;
22094;SDS011;24083;55.670;37.568;2023-12-20T17:43:35;2.95;;;1.50;;
22094;SDS011;24083;55.670;37.568;2023-12-20T17:46:06;2.60;;;1.52;;
22094;SDS011;24083;55.670;37.568;2023-12-20T17:54:21;3.63;;;1.90;;
22094;SDS011;24083;55.670;37.568;2023-12-20T17:56:50;3.05;;;1.80;;
22094;SDS011;24083;55.670;37.568;2023-12-20T17:59:17;3.42;;;1.70;;
22094;SDS011;24083;55.670;37.568;2023-12-20T18:01:45;3.45;;;1.80;;
22094;SDS011;24083;55.670;37.568;2023-12-20T18:04:11;2.08;;;1.70;;
22094;SDS011;24083;55.670;37.568;2023-12-20T18:06:36;4.28;;;1.77;;
22094;SDS011;24083;55.670;37.568;2023-12-20T18:09:02;2.40;;;1.20;;
22094;SDS011;24083;55.670;37.568;2023-12-20T18:11:31;4.28;;;1.90;;
22094;SDS011;24083;55.670;37.568;2023-12-20T18:16:58;5.70;;;1.60;;
22094;SDS011;24083;55.670;37.568;2023-12-20T18:19:26;3.55;;;1.70;;
22094;SDS011;24083;55.670;37.568;2023-12-20T18:21:55;4.10;;;1.50;;
22094;SDS011;24083;55.670;37.568;2023-12-20T18:24:23;2.50;;;1.60;;
22094;SDS011;24083;55.670;37.568;2023-12-20T18:26:55;3.90;;;1.95;;
22094;SDS011;24083;55.670;37.568;2023-12-20T18:35:06;1.35;;;1.10;;
22094;SDS011;24083;55.670;37.568;2023-12-20T18:37:47;2.53;;;1.63;;
22094;SDS011;24083;55.670;37.568;2023-12-20T19:13:53;2.78;;;2.08;;
22094;SDS011;24083;55.670;37.568;2023-12-20T19:28:31;4.65;;;2.08;;
22094;SDS011;24083;55.670;37.568;2023-12-20T19:30:57;3.50;;;2.00;;
22094;SDS011;24083;55.670;37.568;2023-12-20T19:33:45;4.97;;;2.03;;
22094;SDS011;24083;55.670;37.568;2023-12-20T19:36:45;3.38;;;2.10;;
22094;SDS011;24083;55.670;37.568;2023-12-20T19:42:50;3.45;;;2.08;;
22094;SDS011;24083;55.670;37.568;2023-12-20T19:45:18;4.85;;;2.50;;
22094;SDS011;24083;55.670;37.568;2023-12-20T19:51:48;4.10;;;2.40;;
22094;SDS011;24083;55.670;37.568;2023-12-20T19:54:20;3.20;;;1.98;;
22094;SDS011;24083;55.670;37.568;2023-12-20T19:56:57;2.95;;;2.10;;
22094;SDS011;24083;55.670;37.568;2023-12-20T20:02:58;4.43;;;2.17;;
22094;SDS011;24083;55.670;37.568;2023-12-20T20:05:24;2.50;;;2.13;;
22094;SDS011;24083;55.670;37.568;2023-12-20T20:07:52;5.65;;;2.20;;
22094;SDS011;24083;55.670;37.568;2023-12-20T20:10:21;5.72;;;1.95;;
22094;SDS011;24083;55.670;37.568;2023-12-20T20:12:50;3.95;;;2.22;;
22094;SDS011;24083;55.670;37.568;2023-12-20T20:15:19;4.28;;;2.40;;
22094;SDS011;24083;55.670;37.568;2023-12-20T20:17:46;4.88;;;2.22;;
22094;SDS011;24083;55.670;37.568;2023-12-20T20:20:12;3.65;;;2.20;;
22094;SDS011;24083;55.670;37.568;2023-12-20T20:22:38;5.00;;;1.38;;
22094;SDS011;24083;55.670;37.568;2023-12-20T20:25:08;7.47;;;2.53;;
22094;SDS011;24083;55.670;37.568;2023-12-20T20:30:38;4.15;;;2.58;;
22094;SDS011;24083;55.670;37.568;2023-12-20T20:33:04;4.57;;;2.70;;
22094;SDS011;24083;55.670;37.568;2023-12-20T20:35:54;5.57;;;2.55;;
22094;SDS011;24083;55.670;37.568;2023-12-20T20:38:20;5.32;;;2.80;;
22094;SDS011;24083;55.670;37.568;2023-12-20T20:40:53;5.28;;;2.55;;
22094;SDS011;24083;55.670;37.568;2023-12-20T20:43:24;6.05;;;2.80;;
22094;SDS011;24083;55.670;37.568;2023-12-20T20:52:12;4.55;;;2.53;;
22094;SDS011;24083;55.670;37.568;2023-12-20T20:54:50;4.20;;;2.85;;
22094;SDS011;24083;55.670;37.568;2023-12-20T20:57:19;5.65;;;3.20;;
22094;SDS011;24083;55.670;37.568;2023-12-20T21:00:20;5.57;;;3.05;;
22094;SDS011;24083;55.670;37.568;2023-12-20T21:02:54;6.93;;;3.25;;
22094;SDS011;24083;55.670;37.568;2023-12-20T21:36:26;5.70;;;3.85;;
22094;SDS011;24083;55.670;37.568;2023-12-20T21:38:53;7.38;;;3.83;;
22094;SDS011;24083;55.670;37.568;2023-12-20T21:44:27;7.47;;;4.20;;
22094;SDS011;24083;55.670;37.568;2023-12-20T21:46:57;7.55;;;3.95;;
22094;SDS011;24083;55.670;37.568;2023-12-20T21:49:43;8.25;;;4.20;;
22094;SDS011;24083;55.670;37.568;2023-12-20T21:54:59;10.00;;;4.63;;
22094;SDS011;24083;55.670;37.568;2023-12-20T21:57:32;6.47;;;4.03;;
22094;SDS011;24083;55.670;37.568;2023-12-20T22:02:56;6.60;;;4.25;;
22094;SDS011;24083;55.670;37.568;2023-12-20T22:05:26;7.85;;;4.50;;
22094;SDS011;24083;55.670;37.568;2023-12-20T22:07:52;5.95;;;4.68;;
22094;SDS011;24083;55.670;37.568;2023-12-20T22:10:48;6.60;;;4.70;;
22094;SDS011;24083;55.670;37.568;2023-12-20T22:16:11;9.50;;;5.40;;
22094;SDS011;24083;55.670;37.568;2023-12-20T22:18:46;8.45;;;6.03;;
22094;SDS011;24083;55.670;37.568;2023-12-20T22:23:48;8.30;;;5.90;;
22094;SDS011;24083;55.670;37.568;2023-12-20T22:29:16;9.02;;;6.15;;
22094;SDS011;24083;55.670;37.568;2023-12-20T22:32:42;9.38;;;6.45;;
22094;SDS011;24083;55.670;37.568;2023-12-20T22:35:08;9.77;;;6.25;;
22094;SDS011;24083;55.670;37.568;2023-12-20T22:37:34;10.15;;;6.50;;
22094;SDS011;24083;55.670;37.568;2023-12-20T22:40:02;10.82;;;6.40;;
22094;SDS011;24083;55.670;37.568;2023-12-20T22:43:28;9.48;;;6.68;;
22094;SDS011;24083;55.670;37.568;2023-12-20T22:46:00;9.27;;;6.55;;
22094;SDS011;24083;55.670;37.568;2023-12-20T22:48:29;8.98;;;5.90;;
22094;SDS011;24083;55.670;37.568;2023-12-20T22:50:58;9.80;;;6.85;;
22094;SDS011;24083;55.670;37.568;2023-12-20T22:55:57;7.70;;;5.65;;
22094;SDS011;24083;55.670;37.568;2023-12-20T22:58:32;8.20;;;5.72;;
22094;SDS011;24083;55.670;37.568;2023-12-20T23:03:50;8.13;;;5.45;;
22094;SDS011;24083;55.670;37.568;2023-12-20T23:09:09;7.28;;;4.50;;
22094;SDS011;24083;55.670;37.568;2023-12-20T23:11:52;8.45;;;4.80;;
22094;SDS011;24083;55.670;37.568;2023-12-20T23:17:13;7.55;;;4.20;;
22094;SDS011;24083;55.670;37.568;2023-12-20T23:19:39;7.68;;;5.00;;
22094;SDS011;24083;55.670;37.568;2023-12-20T23:22:25;8.00;;;4.70;;
22094;SDS011;24083;55.670;37.568;2023-12-20T23:30:35;6.93;;;4.45;;
22094;SDS011;24083;55.670;37.568;2023-12-20T23:33:11;7.40;;;4.55;;
22094;SDS011;24083;55.670;37.568;2023-12-20T23:35:38;7.15;;;4.28;;
22094;SDS011;24083;55.670;37.568;2023-12-20T23:48:49;7.15;;;5.28;;
22094;SDS011;24083;55.670;37.568;2023-12-20T23:51:39;6.88;;;4.78;;
22094;SDS011;24083;55.670;37.568;2023-12-20T23:54:09;8.23;;;5.10;;
